Terminal Aerodrome Forecast
Issued by NWS Boston, MA

Home | Current Version | Previous Version | Text Only | Print | Product List | Glossary On
Versions: 1 2 3 4 5 6 7 8 9 10 11 12 13 14 15 16 17 18 19 20 21 22 23 24 25 26 27 28 29 30 31 32 33 34 35 36 37 38 39 40 41 42 43 44 45 46 47 48 49 50
806
FTUS41 KBOX 092342 CCA
TAFBOS
TAF COR
KBOS 092342Z 1000/1106 34004KT P6SM BKN025 BKN100
     FM101000 18004KT P6SM OVC035
     FM101300 18004KT P6SM VCSH OVC035
     FM101400 VRB03KT P6SM VCSH OVC020
     FM102200 21005KT P6SM BKN008
     FM102300 22005KT P6SM BKN040=

USA.gov is the U.S. government's official web portal to all federal, state and local government web resources and services.